createdAt,value
2023-05-14T00:12:42.268Z,107.95
2023-05-14T00:27:47.789Z,108.15
2023-05-14T00:42:53.289Z,107.94
2023-05-14T00:58:01.161Z,108.55
2023-05-14T01:13:15.152Z,108.40
2023-05-14T01:28:24.742Z,108.32
2023-05-14T01:43:31.701Z,108.55
2023-05-14T01:58:37.674Z,107.76
2023-05-14T02:13:43.528Z,107.00
2023-05-14T02:28:49.230Z,108.85
2023-05-14T02:43:55.704Z,108.71
2023-05-14T02:59:01.555Z,108.75
2023-05-14T03:14:07.673Z,108.37
2023-05-14T03:29:13.444Z,108.98
2023-05-14T03:44:19.105Z,109.18
2023-05-14T03:59:24.819Z,109.53
2023-05-14T04:14:30.563Z,110.05
2023-05-14T04:29:36.466Z,109.73
2023-05-14T04:44:42.181Z,109.38
2023-05-14T04:59:47.786Z,109.30
2023-05-14T05:14:53.649Z,109.10
2023-05-14T05:29:59.704Z,108.99
2023-05-14T05:45:05.764Z,108.20
2023-05-14T06:00:14.474Z,108.16
2023-05-14T06:15:20.148Z,105.63
2023-05-14T06:30:26.096Z,102.66
2023-05-14T06:45:33.272Z,101.32
2023-05-14T07:00:39.070Z,99.92
2023-05-14T07:15:44.588Z,98.66
2023-05-14T07:30:50.108Z,97.33
2023-05-14T07:45:55.865Z,94.49
2023-05-14T08:01:01.695Z,95.32
2023-05-14T08:16:07.958Z,89.69
2023-05-14T08:31:14.878Z,90.96
2023-05-14T08:46:22.668Z,92.03
2023-05-14T09:01:28.462Z,91.80
2023-05-14T09:16:34.003Z,87.15
2023-05-14T09:31:39.705Z,88.22
2023-05-14T09:46:45.550Z,85.83
2023-05-14T10:01:51.306Z,85.29
2023-05-14T10:17:00.277Z,78.32
2023-05-14T10:32:08.843Z,79.56
2023-05-14T10:47:14.814Z,79.10
2023-05-14T11:02:25.964Z,76.53
2023-05-14T11:17:32.870Z,86.16
2023-05-14T11:32:39.335Z,88.17
2023-05-14T11:47:45.050Z,87.30
2023-05-14T12:02:51.542Z,89.48
2023-05-14T12:17:57.246Z,81.43
2023-05-14T12:33:02.825Z,75.02
2023-05-14T12:48:08.741Z,70.95
2023-05-14T13:03:14.675Z,76.07
2023-05-14T13:18:20.592Z,73.76
2023-05-14T13:33:26.174Z,72.16
2023-05-14T13:48:32.311Z,69.34
2023-05-14T14:03:37.876Z,69.90
2023-05-14T14:18:43.768Z,75.60
2023-05-14T14:33:49.544Z,72.70
2023-05-14T14:48:55.302Z,73.09
2023-05-14T15:04:00.975Z,74.02
2023-05-14T15:19:06.690Z,74.38
2023-05-14T15:34:12.460Z,71.45
2023-05-14T15:49:17.928Z,75.37
2023-05-14T16:04:23.332Z,77.31
2023-05-14T16:19:28.826Z,77.60
2023-05-14T16:34:34.422Z,84.16
2023-05-14T16:49:40.037Z,86.12
2023-05-14T17:04:46.400Z,86.08
2023-05-14T17:19:51.991Z,85.90
2023-05-14T17:34:57.802Z,88.96
2023-05-14T17:50:03.475Z,90.68
2023-05-14T18:05:09.860Z,92.39
2023-05-14T18:20:15.482Z,94.02
2023-05-14T18:35:21.197Z,95.33
2023-05-14T18:50:26.725Z,98.77
2023-05-14T19:05:32.417Z,98.31
2023-05-14T19:20:38.539Z,100.35
2023-05-14T19:35:44.113Z,101.09
2023-05-14T19:50:49.602Z,102.52
2023-05-14T20:05:55.654Z,100.33
2023-05-14T20:21:01.538Z,100.47
2023-05-14T20:36:07.812Z,101.57
2023-05-14T20:51:13.427Z,103.25
2023-05-14T21:06:18.866Z,103.12
2023-05-14T21:21:24.442Z,103.36
2023-05-14T21:36:30.124Z,101.64
2023-05-14T21:51:36.131Z,101.30
2023-05-14T22:06:42.190Z,100.49
2023-05-14T22:21:47.746Z,100.93
2023-05-14T22:36:53.346Z,101.52
2023-05-14T22:51:59.018Z,103.62
2023-05-14T23:07:04.781Z,105.21
2023-05-14T23:22:10.516Z,103.87
2023-05-14T23:37:16.158Z,104.65
2023-05-14T23:52:21.658Z,105.43
